sensor_id;sensor_type;location;lat;lon;timestamp;pressure;altitude;pressure_sealevel;temperature;humidity
29935;BME280;19905;53.370;-6.314;2022-10-16T00:01:46;99502.81;;;7.30;100.00
29935;BME280;19905;53.370;-6.314;2022-10-16T00:04:15;99502.22;;;7.27;100.00
29935;BME280;19905;53.370;-6.314;2022-10-16T00:06:45;99510.47;;;7.22;100.00
29935;BME280;19905;53.370;-6.314;2022-10-16T00:09:15;99511.91;;;7.26;100.00
29935;BME280;19905;53.370;-6.314;2022-10-16T00:11:45;99520.97;;;7.22;100.00
29935;BME280;19905;53.370;-6.314;2022-10-16T00:14:15;99527.44;;;7.18;100.00
29935;BME280;19905;53.370;-6.314;2022-10-16T00:16:44;99528.25;;;7.19;100.00
29935;BME280;19905;53.370;-6.314;2022-10-16T00:19:13;99530.16;;;7.28;100.00
29935;BME280;19905;53.370;-6.314;2022-10-16T00:21:42;99547.00;;;7.25;100.00
29935;BME280;19905;53.370;-6.314;2022-10-16T00:24:14;99540.78;;;7.26;100.00
29935;BME280;19905;53.370;-6.314;2022-10-16T00:26:43;99531.94;;;7.27;100.00
29935;BME280;19905;53.370;-6.314;2022-10-16T00:29:13;99552.25;;;7.25;100.00
29935;BME280;19905;53.370;-6.314;2022-10-16T00:31:42;99545.34;;;7.24;100.00
29935;BME280;19905;53.370;-6.314;2022-10-16T00:34:10;99557.59;;;7.35;100.00
29935;BME280;19905;53.370;-6.314;2022-10-16T00:36:40;99566.31;;;7.35;100.00
29935;BME280;19905;53.370;-6.314;2022-10-16T00:39:09;99552.94;;;7.27;100.00
29935;BME280;19905;53.370;-6.314;2022-10-16T00:41:39;99556.31;;;7.29;100.00
29935;BME280;19905;53.370;-6.314;2022-10-16T00:44:42;99566.81;;;7.29;100.00
29935;BME280;19905;53.370;-6.314;2022-10-16T00:47:17;99569.06;;;7.34;100.00
29935;BME280;19905;53.370;-6.314;2022-10-16T00:49:50;99565.09;;;7.39;100.00
29935;BME280;19905;53.370;-6.314;2022-10-16T00:52:22;99575.75;;;7.38;100.00
29935;BME280;19905;53.370;-6.314;2022-10-16T00:54:52;99562.03;;;7.34;100.00
29935;BME280;19905;53.370;-6.314;2022-10-16T00:57:25;99563.81;;;7.34;100.00
29935;BME280;19905;53.370;-6.314;2022-10-16T00:59:57;99579.44;;;7.35;100.00
29935;BME280;19905;53.370;-6.314;2022-10-16T01:02:27;99566.31;;;7.35;100.00
29935;BME280;19905;53.370;-6.314;2022-10-16T01:04:57;99573.22;;;7.36;100.00
29935;BME280;19905;53.370;-6.314;2022-10-16T01:07:36;99599.84;;;7.32;100.00
29935;BME280;19905;53.370;-6.314;2022-10-16T01:10:17;99582.66;;;7.39;100.00
29935;BME280;19905;53.370;-6.314;2022-10-16T01:12:53;99571.56;;;7.35;100.00
29935;BME280;19905;53.370;-6.314;2022-10-16T01:15:26;99587.09;;;7.27;100.00
29935;BME280;19905;53.370;-6.314;2022-10-16T01:18:01;99583.78;;;7.25;100.00
29935;BME280;19905;53.370;-6.314;2022-10-16T01:20:37;99585.31;;;7.28;100.00
29935;BME280;19905;53.370;-6.314;2022-10-16T01:23:26;99575.06;;;7.25;100.00
29935;BME280;19905;53.370;-6.314;2022-10-16T01:26:20;99578.63;;;7.24;100.00
29935;BME280;19905;53.370;-6.314;2022-10-16T01:28:56;99587.44;;;7.34;100.00
29935;BME280;19905;53.370;-6.314;2022-10-16T01:31:29;99583.03;;;7.34;100.00
29935;BME280;19905;53.370;-6.314;2022-10-16T01:34:03;99584.09;;;7.32;100.00
29935;BME280;19905;53.370;-6.314;2022-10-16T01:36:37;99595.81;;;7.28;100.00
29935;BME280;19905;53.370;-6.314;2022-10-16T01:39:10;99588.97;;;7.36;100.00
29935;BME280;19905;53.370;-6.314;2022-10-16T01:41:46;99584.56;;;7.37;100.00
29935;BME280;19905;53.370;-6.314;2022-10-16T01:44:24;99599.16;;;7.30;100.00
29935;BME280;19905;53.370;-6.314;2022-10-16T01:46:55;99614.31;;;7.26;100.00
29935;BME280;19905;53.370;-6.314;2022-10-16T01:49:27;99637.97;;;7.26;100.00
29935;BME280;19905;53.370;-6.314;2022-10-16T01:51:59;99625.91;;;7.24;100.00
29935;BME280;19905;53.370;-6.314;2022-10-16T01:54:34;99625.34;;;7.20;100.00
29935;BME280;19905;53.370;-6.314;2022-10-16T01:57:13;99636.53;;;7.22;100.00
29935;BME280;19905;53.370;-6.314;2022-10-16T01:59:48;99643.00;;;7.18;100.00
29935;BME280;19905;53.370;-6.314;2022-10-16T02:02:21;99635.72;;;7.22;100.00
29935;BME280;19905;53.370;-6.314;2022-10-16T02:04:56;99656.03;;;7.20;100.00
29935;BME280;19905;53.370;-6.314;2022-10-16T02:07:26;99650.03;;;7.18;100.00
29935;BME280;19905;53.370;-6.314;2022-10-16T02:09:57;99645.88;;;7.15;100.00
29935;BME280;19905;53.370;-6.314;2022-10-16T02:12:28;99650.16;;;7.16;100.00
29935;BME280;19905;53.370;-6.314;2022-10-16T02:14:59;99652.53;;;7.19;100.00
29935;BME280;19905;53.370;-6.314;2022-10-16T02:17:29;99662.56;;;7.14;100.00
29935;BME280;19905;53.370;-6.314;2022-10-16T02:19:58;99679.66;;;7.08;100.00
29935;BME280;19905;53.370;-6.314;2022-10-16T02:22:29;99666.28;;;7.11;100.00
29935;BME280;19905;53.370;-6.314;2022-10-16T02:25:01;99671.78;;;7.08;100.00
29935;BME280;19905;53.370;-6.314;2022-10-16T02:27:37;99686.22;;;7.03;100.00
29935;BME280;19905;53.370;-6.314;2022-10-16T02:30:14;99684.28;;;7.05;100.00
29935;BME280;19905;53.370;-6.314;2022-10-16T02:32:47;99689.06;;;7.00;100.00
29935;BME280;19905;53.370;-6.314;2022-10-16T02:35:20;99688.84;;;7.03;100.00
29935;BME280;19905;53.370;-6.314;2022-10-16T02:37:52;99700.66;;;6.97;100.00
29935;BME280;19905;53.370;-6.314;2022-10-16T02:40:21;99709.47;;;6.96;100.00
29935;BME280;19905;53.370;-6.314;2022-10-16T02:42:54;99704.47;;;6.93;100.00
29935;BME280;19905;53.370;-6.314;2022-10-16T02:45:24;99709.25;;;6.99;100.00
29935;BME280;19905;53.370;-6.314;2022-10-16T02:47:53;99715.22;;;7.01;100.00
29935;BME280;19905;53.370;-6.314;2022-10-16T02:50:22;99723.81;;;7.03;100.00
29935;BME280;19905;53.370;-6.314;2022-10-16T02:52:52;99727.13;;;7.05;100.00
29935;BME280;19905;53.370;-6.314;2022-10-16T02:55:22;99720.22;;;7.04;100.00
29935;BME280;19905;53.370;-6.314;2022-10-16T02:57:52;99720.22;;;7.04;100.00
29935;BME280;19905;53.370;-6.314;2022-10-16T03:00:21;99728.22;;;7.03;100.00
29935;BME280;19905;53.370;-6.314;2022-10-16T03:02:52;99734.44;;;7.02;100.00
29935;BME280;19905;53.370;-6.314;2022-10-16T03:05:20;99745.88;;;7.01;100.00
29935;BME280;19905;53.370;-6.314;2022-10-16T03:07:51;99733.72;;;7.00;100.00
29935;BME280;19905;53.370;-6.314;2022-10-16T03:10:20;99741.34;;;6.92;100.00
29935;BME280;19905;53.370;-6.314;2022-10-16T03:12:56;99751.72;;;6.93;100.00
29935;BME280;19905;53.370;-6.314;2022-10-16T03:15:27;99748.38;;;6.91;100.00
29935;BME280;19905;53.370;-6.314;2022-10-16T03:17:58;99743.97;;;6.92;100.00
29935;BME280;19905;53.370;-6.314;2022-10-16T03:20:27;99745.66;;;6.93;100.00
29935;BME280;19905;53.370;-6.314;2022-10-16T03:22:58;99759.22;;;6.86;100.00
29935;BME280;19905;53.370;-6.314;2022-10-16T03:25:29;99751.59;;;6.83;100.00
29935;BME280;19905;53.370;-6.314;2022-10-16T03:27:57;99772.25;;;6.88;100.00
29935;BME280;19905;53.370;-6.314;2022-10-16T03:30:27;99764.47;;;6.86;100.00
29935;BME280;19905;53.370;-6.314;2022-10-16T03:32:57;99767.22;;;6.85;100.00
29935;BME280;19905;53.370;-6.314;2022-10-16T03:35:26;99773.03;;;6.77;100.00
29935;BME280;19905;53.370;-6.314;2022-10-16T03:37:57;99788.91;;;6.76;100.00
29935;BME280;19905;53.370;-6.314;2022-10-16T03:40:44;99776.41;;;6.79;100.00
29935;BME280;19905;53.370;-6.314;2022-10-16T03:43:37;99782.38;;;6.81;100.00
29935;BME280;19905;53.370;-6.314;2022-10-16T03:46:08;99792.25;;;6.78;100.00
29935;BME280;19905;53.370;-6.314;2022-10-16T03:48:39;99797.16;;;6.82;100.00
29935;BME280;19905;53.370;-6.314;2022-10-16T03:51:12;99801.97;;;6.88;100.00
29935;BME280;19905;53.370;-6.314;2022-10-16T03:54:06;99804.13;;;6.95;100.00
29935;BME280;19905;53.370;-6.314;2022-10-16T03:56:40;99817.13;;;6.96;100.00
29935;BME280;19905;53.370;-6.314;2022-10-16T03:59:10;99821.66;;;6.94;100.00
29935;BME280;19905;53.370;-6.314;2022-10-16T04:02:00;99816.06;;;6.99;100.00
29935;BME280;19905;53.370;-6.314;2022-10-16T04:04:37;99825.94;;;6.95;100.00
29935;BME280;19905;53.370;-6.314;2022-10-16T04:07:06;99838.47;;;6.92;100.00
29935;BME280;19905;53.370;-6.314;2022-10-16T04:09:42;99854.00;;;6.95;100.00
29935;BME280;19905;53.370;-6.314;2022-10-16T04:12:14;99878.25;;;6.98;100.00
29935;BME280;19905;53.370;-6.314;2022-10-16T04:14:43;99861.03;;;6.94;100.00
29935;BME280;19905;53.370;-6.314;2022-10-16T04:17:20;99866.41;;;6.93;100.00
29935;BME280;19905;53.370;-6.314;2022-10-16T04:20:01;99869.97;;;6.92;100.00
29935;BME280;19905;53.370;-6.314;2022-10-16T04:22:35;99880.03;;;6.98;100.00
29935;BME280;19905;53.370;-6.314;2022-10-16T04:25:12;99891.50;;;6.97;100.00
29935;BME280;19905;53.370;-6.314;2022-10-16T04:27:41;99887.50;;;6.91;100.00
29935;BME280;19905;53.370;-6.314;2022-10-16T04:30:19;99908.06;;;6.97;100.00
29935;BME280;19905;53.370;-6.314;2022-10-16T04:32:56;99909.59;;;6.88;100.00
29935;BME280;19905;53.370;-6.314;2022-10-16T04:35:36;99923.06;;;6.84;100.00
29935;BME280;19905;53.370;-6.314;2022-10-16T04:38:04;99925.91;;;6.81;100.00
29935;BME280;19905;53.370;-6.314;2022-10-16T04:40:34;99933.44;;;6.85;100.00
29935;BME280;19905;53.370;-6.314;2022-10-16T04:45:54;99957.69;;;6.89;100.00
29935;BME280;19905;53.370;-6.314;2022-10-16T04:48:26;99950.97;;;6.85;100.00
29935;BME280;19905;53.370;-6.314;2022-10-16T04:50:56;99962.19;;;6.87;100.00
29935;BME280;19905;53.370;-6.314;2022-10-16T04:53:25;99959.56;;;6.87;100.00
29935;BME280;19905;53.370;-6.314;2022-10-16T04:55:54;99959.19;;;6.80;100.00
29935;BME280;19905;53.370;-6.314;2022-10-16T04:58:24;99974.59;;;6.85;100.00
29935;BME280;19905;53.370;-6.314;2022-10-16T05:00:55;99968.38;;;6.86;100.00
29935;BME280;19905;53.370;-6.314;2022-10-16T05:03:27;99966.38;;;6.90;100.00
29935;BME280;19905;53.370;-6.314;2022-10-16T05:06:05;99975.22;;;6.88;100.00
29935;BME280;19905;53.370;-6.314;2022-10-16T05:08:34;99983.09;;;6.88;100.00
29935;BME280;19905;53.370;-6.314;2022-10-16T05:11:03;99966.38;;;6.90;100.00
29935;BME280;19905;53.370;-6.314;2022-10-16T05:13:32;99965.88;;;6.84;100.00
29935;BME280;19905;53.370;-6.314;2022-10-16T05:16:01;99952.16;;;6.81;100.00
29935;BME280;19905;53.370;-6.314;2022-10-16T05:18:31;99951.81;;;6.85;100.00
29935;BME280;19905;53.370;-6.314;2022-10-16T05:21:00;99952.97;;;6.81;100.00
29935;BME280;19905;53.370;-6.314;2022-10-16T05:23:30;99968.38;;;6.86;100.00
29935;BME280;19905;53.370;-6.314;2022-10-16T05:25:59;99950.97;;;6.85;100.00
29935;BME280;19905;53.370;-6.314;2022-10-16T05:28:32;99960.03;;;6.81;100.00
29935;BME280;19905;53.370;-6.314;2022-10-16T05:31:05;99966.72;;;6.85;100.00
29935;BME280;19905;53.370;-6.314;2022-10-16T05:33:34;99974.72;;;6.83;100.00
29935;BME280;19905;53.370;-6.314;2022-10-16T05:36:05;99991.31;;;6.84;100.00
29935;BME280;19905;53.370;-6.314;2022-10-16T05:38:38;99980.41;;;6.77;100.00
29935;BME280;19905;53.370;-6.314;2022-10-16T05:41:07;99981.13;;;6.79;100.00
29935;BME280;19905;53.370;-6.314;2022-10-16T05:43:41;99999.06;;;6.85;100.00
29935;BME280;19905;53.370;-6.314;2022-10-16T05:46:10;99985.94;;;6.85;100.00
29935;BME280;19905;53.370;-6.314;2022-10-16T05:48:39;99987.72;;;6.85;100.00
29935;BME280;19905;53.370;-6.314;2022-10-16T05:51:13;99995.06;;;6.93;100.00
29935;BME280;19905;53.370;-6.314;2022-10-16T05:53:43;99990.97;;;6.88;100.00
29935;BME280;19905;53.370;-6.314;2022-10-16T05:56:12;100001.34;;;6.90;100.00
29935;BME280;19905;53.370;-6.314;2022-10-16T05:58:41;100005.09;;;6.99;100.00
29935;BME280;19905;53.370;-6.314;2022-10-16T06:01:14;100017.50;;;6.97;100.00
29935;BME280;19905;53.370;-6.314;2022-10-16T06:03:43;100002.94;;;6.93;100.00
29935;BME280;19905;53.370;-6.314;2022-10-16T06:06:14;100009.72;;;6.95;100.00
29935;BME280;19905;53.370;-6.314;2022-10-16T06:08:47;100024.97;;;6.90;100.00
29935;BME280;19905;53.370;-6.314;2022-10-16T06:11:19;100034.75;;;6.88;100.00
29935;BME280;19905;53.370;-6.314;2022-10-16T06:13:49;100031.50;;;6.84;100.00
29935;BME280;19905;53.370;-6.314;2022-10-16T06:16:18;100028.69;;;6.87;100.00
29935;BME280;19905;53.370;-6.314;2022-10-16T06:18:50;100036.66;;;6.86;100.00
29935;BME280;19905;53.370;-6.314;2022-10-16T06:21:22;100029.94;;;6.82;100.00
29935;BME280;19905;53.370;-6.314;2022-10-16T06:23:55;100047.38;;;6.83;100.00
29935;BME280;19905;53.370;-6.314;2022-10-16T06:26:27;100029.34;;;6.78;100.00
29935;BME280;19905;53.370;-6.314;2022-10-16T06:28:57;100045.28;;;6.75;100.00
29935;BME280;19905;53.370;-6.314;2022-10-16T06:31:27;100042.56;;;6.77;100.00
29935;BME280;19905;53.370;-6.314;2022-10-16T06:34:01;100052.66;;;6.70;100.00
29935;BME280;19905;53.370;-6.314;2022-10-16T06:36:32;100053.06;;;6.64;100.00
29935;BME280;19905;53.370;-6.314;2022-10-16T06:39:03;100054.25;;;6.60;100.00
29935;BME280;19905;53.370;-6.314;2022-10-16T06:41:31;100071.03;;;6.57;100.00
29935;BME280;19905;53.370;-6.314;2022-10-16T06:44:01;100068.03;;;6.51;100.00
29935;BME280;19905;53.370;-6.314;2022-10-16T06:46:32;100084.50;;;6.53;100.00
29935;BME280;19905;53.370;-6.314;2022-10-16T06:49:00;100095.09;;;6.51;100.00
29935;BME280;19905;53.370;-6.314;2022-10-16T06:51:32;100093.63;;;6.47;100.00
29935;BME280;19905;53.370;-6.314;2022-10-16T06:54:09;100106.22;;;6.42;100.00
29935;BME280;19905;53.370;-6.314;2022-10-16T06:56:39;100100.88;;;6.44;100.00
29935;BME280;19905;53.370;-6.314;2022-10-16T06:59:16;100107.91;;;6.43;100.00
29935;BME280;19905;53.370;-6.314;2022-10-16T07:01:48;100115.25;;;6.38;100.00
29935;BME280;19905;53.370;-6.314;2022-10-16T07:04:19;100131.38;;;6.32;100.00
29935;BME280;19905;53.370;-6.314;2022-10-16T07:06:48;100152.06;;;6.36;100.00
29935;BME280;19905;53.370;-6.314;2022-10-16T07:09:20;100150.38;;;6.35;100.00
29935;BME280;19905;53.370;-6.314;2022-10-16T07:11:50;100151.34;;;6.34;100.00
29935;BME280;19905;53.370;-6.314;2022-10-16T07:14:26;100156.69;;;6.33;100.00
29935;BME280;19905;53.370;-6.314;2022-10-16T07:17:03;100162.47;;;6.38;100.00
29935;BME280;19905;53.370;-6.314;2022-10-16T07:19:34;100164.78;;;6.43;100.00
29935;BME280;19905;53.370;-6.314;2022-10-16T07:22:05;100179.56;;;6.44;100.00
29935;BME280;19905;53.370;-6.314;2022-10-16T07:24:36;100186.28;;;6.48;100.00
29935;BME280;19905;53.370;-6.314;2022-10-16T07:27:05;100196.59;;;6.51;100.00
29935;BME280;19905;53.370;-6.314;2022-10-16T07:29:35;100205.81;;;6.56;100.00
29935;BME280;19905;53.370;-6.314;2022-10-16T07:32:07;100217.38;;;6.67;100.00
29935;BME280;19905;53.370;-6.314;2022-10-16T07:34:37;100222.19;;;6.73;100.00
29935;BME280;19905;53.370;-6.314;2022-10-16T07:37:06;100224.50;;;6.77;100.00
29935;BME280;19905;53.370;-6.314;2022-10-16T07:39:42;100220.97;;;6.78;100.00
29935;BME280;19905;53.370;-6.314;2022-10-16T07:42:12;100225.25;;;6.79;100.00
29935;BME280;19905;53.370;-6.314;2022-10-16T07:44:41;100230.28;;;6.82;100.00
29935;BME280;19905;53.370;-6.314;2022-10-16T07:47:11;100243.94;;;6.87;100.00
29935;BME280;19905;53.370;-6.314;2022-10-16T07:49:41;100242.88;;;6.90;100.00
29935;BME280;19905;53.370;-6.314;2022-10-16T07:52:11;100253.28;;;6.92;100.00
29935;BME280;19905;53.370;-6.314;2022-10-16T07:54:43;100275.03;;;6.94;100.00
29935;BME280;19905;53.370;-6.314;2022-10-16T07:57:11;100274.19;;;6.93;100.00
29935;BME280;19905;53.370;-6.314;2022-10-16T07:59:50;100288.69;;;6.99;100.00
29935;BME280;19905;53.370;-6.314;2022-10-16T08:02:20;100297.28;;;7.01;100.00
29935;BME280;19905;53.370;-6.314;2022-10-16T08:04:49;100294.91;;;7.10;100.00
29935;BME280;19905;53.370;-6.314;2022-10-16T08:07:19;100301.91;;;7.10;100.00
29935;BME280;19905;53.370;-6.314;2022-10-16T08:09:50;100300.16;;;7.10;100.00
29935;BME280;19905;53.370;-6.314;2022-10-16T08:12:19;100308.63;;;7.14;100.00
29935;BME280;19905;53.370;-6.314;2022-10-16T08:14:50;100302.97;;;7.20;100.00
29935;BME280;19905;53.370;-6.314;2022-10-16T08:17:21;100301.72;;;7.26;100.00
29935;BME280;19905;53.370;-6.314;2022-10-16T08:19:51;100299.59;;;7.31;100.00
29935;BME280;19905;53.370;-6.314;2022-10-16T08:22:28;100299.16;;;7.37;100.00
29935;BME280;19905;53.370;-6.314;2022-10-16T08:24:59;100298.75;;;7.43;100.00
29935;BME280;19905;53.370;-6.314;2022-10-16T08:27:31;100296.72;;;7.47;100.00
29935;BME280;19905;53.370;-6.314;2022-10-16T08:30:02;100283.25;;;7.51;100.00
29935;BME280;19905;53.370;-6.314;2022-10-16T08:32:31;100291.56;;;7.58;100.00
29935;BME280;19905;53.370;-6.314;2022-10-16T08:35:02;100297.34;;;7.63;100.00
29935;BME280;19905;53.370;-6.314;2022-10-16T08:37:31;100296.91;;;7.69;100.00
29935;BME280;19905;53.370;-6.314;2022-10-16T08:40:04;100294.69;;;7.76;100.00
29935;BME280;19905;53.370;-6.314;2022-10-16T08:42:46;100288.78;;;7.85;100.00
29935;BME280;19905;53.370;-6.314;2022-10-16T08:45:26;100290.63;;;7.96;100.00
29935;BME280;19905;53.370;-6.314;2022-10-16T08:48:14;100290.69;;;8.07;100.00
29935;BME280;19905;53.370;-6.314;2022-10-16T08:50:44;100299.94;;;8.12;100.00
29935;BME280;19905;53.370;-6.314;2022-10-16T08:53:17;100302.00;;;8.20;100.00
29935;BME280;19905;53.370;-6.314;2022-10-16T08:55:52;100299.41;;;8.31;100.00
29935;BME280;19905;53.370;-6.314;2022-10-16T08:58:27;100298.06;;;8.38;100.00
29935;BME280;19905;53.370;-6.314;2022-10-16T09:00:59;100296.75;;;8.44;100.00
29935;BME280;19905;53.370;-6.314;2022-10-16T09:03:43;100303.16;;;8.53;100.00
29935;BME280;19905;53.370;-6.314;2022-10-16T09:06:32;100291.44;;;8.57;100.00
29935;BME280;19905;53.370;-6.314;2022-10-16T09:12:06;100300.41;;;8.65;100.00
29935;BME280;19905;53.370;-6.314;2022-10-16T09:14:50;100304.50;;;8.70;100.00
29935;BME280;19905;53.370;-6.314;2022-10-16T09:20:18;100311.97;;;8.76;100.00
29935;BME280;19905;53.370;-6.314;2022-10-16T09:23:16;100316.88;;;8.80;100.00
29935;BME280;19905;53.370;-6.314;2022-10-16T09:25:47;100315.69;;;8.84;100.00
29935;BME280;19905;53.370;-6.314;2022-10-16T09:28:19;100325.28;;;8.85;100.00
29935;BME280;19905;53.370;-6.314;2022-10-16T09:30:49;100329.22;;;8.91;100.00
29935;BME280;19905;53.370;-6.314;2022-10-16T09:33:23;100341.34;;;8.94;100.00
29935;BME280;19905;53.370;-6.314;2022-10-16T09:35:54;100350.91;;;8.95;100.00
29935;BME280;19905;53.370;-6.314;2022-10-16T09:38:29;100349.72;;;8.99;100.00
29935;BME280;19905;53.370;-6.314;2022-10-16T09:40:59;100355.59;;;9.02;100.00
29935;BME280;19905;53.370;-6.314;2022-10-16T09:43:40;100346.50;;;9.06;100.00
29935;BME280;19905;53.370;-6.314;2022-10-16T09:46:24;100337.31;;;9.12;100.00
29935;BME280;19905;53.370;-6.314;2022-10-16T09:48:55;100333.00;;;9.22;100.00
29935;BME280;19905;53.370;-6.314;2022-10-16T09:51:27;100339.25;;;9.32;100.00
29935;BME280;19905;53.370;-6.314;2022-10-16T09:53:58;100341.16;;;9.41;100.00
29935;BME280;19905;53.370;-6.314;2022-10-16T09:56:31;100330.97;;;9.48;100.00
29935;BME280;19905;53.370;-6.314;2022-10-16T09:59:08;100333.03;;;9.56;100.00
29935;BME280;19905;53.370;-6.314;2022-10-16T10:01:41;100342.16;;;9.63;100.00
29935;BME280;19905;53.370;-6.314;2022-10-16T10:04:12;100345.72;;;9.73;100.00
29935;BME280;19905;53.370;-6.314;2022-10-16T10:06:43;100349.69;;;9.90;100.00
29935;BME280;19905;53.370;-6.314;2022-10-16T10:09:20;100349.06;;;9.98;100.00
29935;BME280;19905;53.370;-6.314;2022-10-16T10:11:53;100348.44;;;10.05;100.00
29935;BME280;19905;53.370;-6.314;2022-10-16T10:14:30;100336.44;;;10.12;100.00
29935;BME280;19905;53.370;-6.314;2022-10-16T10:17:18;100328.13;;;10.17;100.00
29935;BME280;19905;53.370;-6.314;2022-10-16T10:19:52;100326.72;;;10.24;100.00
29935;BME280;19905;53.370;-6.314;2022-10-16T10:22:31;100328.50;;;10.24;100.00
29935;BME280;19905;53.370;-6.314;2022-10-16T10:25:18;100307.75;;;10.19;100.00
29935;BME280;19905;53.370;-6.314;2022-10-16T10:30:51;100309.78;;;10.15;100.00
29935;BME280;19905;53.370;-6.314;2022-10-16T10:33:33;100318.44;;;10.17;100.00
29935;BME280;19905;53.370;-6.314;2022-10-16T10:36:14;100307.88;;;10.17;100.00
29935;BME280;19905;53.370;-6.314;2022-10-16T10:38:49;100290.63;;;10.13;100.00
29935;BME280;19905;53.370;-6.314;2022-10-16T10:41:50;100297.06;;;10.21;100.00
29935;BME280;19905;53.370;-6.314;2022-10-16T10:44:34;100314.22;;;10.26;100.00
29935;BME280;19905;53.370;-6.314;2022-10-16T10:47:17;100319.75;;;10.23;100.00
29935;BME280;19905;53.370;-6.314;2022-10-16T10:50:01;100323.22;;;10.24;100.00
29935;BME280;19905;53.370;-6.314;2022-10-16T10:52:45;100327.19;;;10.29;100.00
29935;BME280;19905;53.370;-6.314;2022-10-16T10:55:24;100332.81;;;10.36;100.00
29935;BME280;19905;53.370;-6.314;2022-10-16T10:58:10;100319.25;;;10.40;100.00
29935;BME280;19905;53.370;-6.314;2022-10-16T11:00:47;100323.78;;;10.50;100.00
29935;BME280;19905;53.370;-6.314;2022-10-16T11:03:38;100338.66;;;10.51;100.00
29935;BME280;19905;53.370;-6.314;2022-10-16T11:06:14;100341.28;;;10.51;100.00
29935;BME280;19905;53.370;-6.314;2022-10-16T11:08:48;100340.78;;;10.57;100.00
29935;BME280;19905;53.370;-6.314;2022-10-16T11:11:25;100337.16;;;10.58;100.00
29935;BME280;19905;53.370;-6.314;2022-10-16T11:14:00;100330.22;;;10.57;100.00
29935;BME280;19905;53.370;-6.314;2022-10-16T11:16:36;100343.31;;;10.58;100.00
29935;BME280;19905;53.370;-6.314;2022-10-16T11:19:13;100339.63;;;10.50;100.00
29935;BME280;19905;53.370;-6.314;2022-10-16T11:21:46;100332.31;;;10.42;100.00
29935;BME280;19905;53.370;-6.314;2022-10-16T11:24:22;100340.00;;;10.45;100.00
29935;BME280;19905;53.370;-6.314;2022-10-16T11:26:54;100349.72;;;10.45;100.00
29935;BME280;19905;53.370;-6.314;2022-10-16T11:29:27;100347.19;;;10.43;100.00
29935;BME280;19905;53.370;-6.314;2022-10-16T11:32:06;100347.19;;;10.43;100.00
29935;BME280;19905;53.370;-6.314;2022-10-16T11:34:40;100340.00;;;10.45;100.00
29935;BME280;19905;53.370;-6.314;2022-10-16T11:37:14;100331.34;;;10.43;100.00
29935;BME280;19905;53.370;-6.314;2022-10-16T11:39:45;100326.78;;;10.45;100.00
29935;BME280;19905;53.370;-6.314;2022-10-16T11:42:18;100328.47;;;10.46;100.00
29935;BME280;19905;53.370;-6.314;2022-10-16T11:44:53;100334.44;;;10.48;100.00
29935;BME280;19905;53.370;-6.314;2022-10-16T11:47:27;100325.44;;;10.51;100.00
29935;BME280;19905;53.370;-6.314;2022-10-16T11:50:26;100320.41;;;10.48;100.00
29935;BME280;19905;53.370;-6.314;2022-10-16T11:53:01;100319.31;;;10.50;100.00
29935;BME280;19905;53.370;-6.314;2022-10-16T11:55:35;100311.72;;;10.57;100.00
29935;BME280;19905;53.370;-6.314;2022-10-16T11:58:19;100305.97;;;10.52;100.00
29935;BME280;19905;53.370;-6.314;2022-10-16T12:00:56;100309.34;;;10.54;100.00
29935;BME280;19905;53.370;-6.314;2022-10-16T12:03:30;100307.78;;;10.51;100.00
29935;BME280;19905;53.370;-6.314;2022-10-16T12:06:19;100308.50;;;10.53;100.00
29935;BME280;19905;53.370;-6.314;2022-10-16T12:08:51;100300.31;;;10.56;100.00
29935;BME280;19905;53.370;-6.314;2022-10-16T12:11:24;100276.78;;;10.53;100.00
29935;BME280;19905;53.370;-6.314;2022-10-16T12:14:21;100275.13;;;10.52;100.00
29935;BME280;19905;53.370;-6.314;2022-10-16T12:16:53;100274.88;;;10.55;100.00
29935;BME280;19905;53.370;-6.314;2022-10-16T12:19:23;100276.09;;;10.51;100.00
29935;BME280;19905;53.370;-6.314;2022-10-16T12:21:58;100274.50;;;10.60;100.00
29935;BME280;19905;53.370;-6.314;2022-10-16T12:24:35;100274.63;;;10.58;100.00
29935;BME280;19905;53.370;-6.314;2022-10-16T12:27:06;100270.88;;;10.61;100.00
29935;BME280;19905;53.370;-6.314;2022-10-16T12:29:37;100268.25;;;10.61;100.00
29935;BME280;19905;53.370;-6.314;2022-10-16T12:32:23;100264.47;;;10.54;100.00
29935;BME280;19905;53.370;-6.314;2022-10-16T12:35:18;100265.16;;;10.56;100.00
29935;BME280;19905;53.370;-6.314;2022-10-16T12:37:52;100277.38;;;10.57;100.00
29935;BME280;19905;53.370;-6.314;2022-10-16T12:40:27;100283.84;;;10.64;100.00
29935;BME280;19905;53.370;-6.314;2022-10-16T12:43:10;100282.66;;;10.57;100.00
29935;BME280;19905;53.370;-6.314;2022-10-16T12:45:41;100280.31;;;10.54;100.00
29935;BME280;19905;53.370;-6.314;2022-10-16T12:48:23;100284.16;;;10.50;100.00
29935;BME280;19905;53.370;-6.314;2022-10-16T12:51:22;100287.03;;;10.47;100.00
29935;BME280;19905;53.370;-6.314;2022-10-16T12:54:03;100278.66;;;10.41;100.00
29935;BME280;19905;53.370;-6.314;2022-10-16T12:56:41;100271.22;;;10.35;100.00
29935;BME280;19905;53.370;-6.314;2022-10-16T12:59:24;100264.56;;;10.31;100.00
29935;BME280;19905;53.370;-6.314;2022-10-16T13:02:27;100266.47;;;10.29;100.00
29935;BME280;19905;53.370;-6.314;2022-10-16T13:05:25;100248.81;;;10.30;100.00
29935;BME280;19905;53.370;-6.314;2022-10-16T13:08:07;100244.66;;;10.27;100.00
29935;BME280;19905;53.370;-6.314;2022-10-16T13:10:54;100245.59;;;10.26;100.00
29935;BME280;19905;53.370;-6.314;2022-10-16T13:13:46;100236.59;;;10.29;100.00
29935;BME280;19905;53.370;-6.314;2022-10-16T13:16:26;100228.19;;;10.24;100.00
29935;BME280;19905;53.370;-6.314;2022-10-16T13:19:11;100232.88;;;10.20;100.00
29935;BME280;19905;53.370;-6.314;2022-10-16T13:21:51;100231.44;;;10.16;100.00
29935;BME280;19905;53.370;-6.314;2022-10-16T13:24:40;100223.69;;;10.14;100.00
29935;BME280;19905;53.370;-6.314;2022-10-16T13:27:20;100211.31;;;10.15;100.00
29935;BME280;19905;53.370;-6.314;2022-10-16T13:30:11;100198.81;;;10.17;100.00
29935;BME280;19905;53.370;-6.314;2022-10-16T13:32:45;100186.59;;;10.16;100.00